Terminal Aerodrome Forecast
Issued by NWS Lake Charles, LA

Home | Current Version | Previous Version | Text Only | Print | Product List | Glossary On
Versions: 1 2 3 4 5 6 7 8 9 10 11 12 13 14 15 16 17
000
FTUS44 KLCH 302300
TAFAEX
TAF
KAEX 302320Z 3100/3124 VRB04KT P6SM BKN200
     FM311500 12006KT P6SM VCSH SCT040 BKN200=

USA.gov is the U.S. government's official web portal to all federal, state and local government web resources and services.